METAR Data
IDs: Format: Raw Decoded Include TAF

Data at: 2042 UTC 18 Apr 2021

LIRF 182020Z 09005KT 9999 FEW030 SCT045 08/07 Q1015 NOSIG